Time;durP1;ratioP1;P1;durP2;ratioP2;P2;SDS_P1;SDS_P2;PMS_P1;PMS_P2;Temp;Humidity;BMP_temperature;BMP_pressure;BME280_temperature;BME280_humidity;BME280_pressure;Samples;Min_cycle;Max_cycle;Signal;HPM_P1;HPM_P2
2023/09/29 00:01:15;;;;;;;;;;;21.80;77.90;;;;;;5113347;28;22660;-56
2023/09/29 00:03:41;;;;;;;;;;;21.80;77.80;;;;;;5114164;28;19919;-56
2023/09/29 00:06:07;;;;;;;;;;;21.80;77.40;;;;;;5114131;28;19908;-56
2023/09/29 00:08:33;;;;;;;;;;;21.80;77.70;;;;;;5114157;28;19908;-55
2023/09/29 00:10:58;;;;;;;;;;;21.80;77.70;;;;;;5113920;28;19914;-54
2023/09/29 00:13:24;;;;;;;;;;;21.80;77.80;;;;;;5113276;28;19915;-56
2023/09/29 00:15:49;;;;;;;;;;;21.80;77.80;;;;;;5114026;28;19919;-54
2023/09/29 00:18:15;;;;;;;;;;;21.80;77.80;;;;;;5113817;28;19912;-55
2023/09/29 00:20:40;;;;;;;;;;;21.80;77.90;;;;;;5114187;28;20339;-54
2023/09/29 00:23:06;;;;;;;;;;;21.80;78.00;;;;;;5113712;28;19945;-54
2023/09/29 00:25:32;;;;;;;;;;;21.80;78.00;;;;;;5113749;28;20395;-56
2023/09/29 00:27:57;;;;;;;;;;;21.80;78.00;;;;;;5113719;28;19960;-57
2023/09/29 00:30:23;;;;;;;;;;;21.80;78.10;;;;;;5113608;28;19953;-56
2023/09/29 00:32:49;;;;;;;;;;;21.80;78.10;;;;;;5113700;28;19908;-56
2023/09/29 00:35:19;;;;;;;;;;;21.80;78.20;;;;;;5113604;28;19931;-56
2023/09/29 00:37:45;;;;;;;;;;;21.80;77.80;;;;;;5120322;28;19950;-55
2023/09/29 00:40:12;;;;;;;;;;;21.80;78.00;;;;;;5113606;28;20231;-55
2023/09/29 00:42:39;;;;;;;;;;;21.80;78.10;;;;;;5095259;28;20359;-55
2023/09/29 00:45:05;;;;;;;;;;;21.80;77.60;;;;;;5095261;28;19955;-56
2023/09/29 00:47:31;;;;;;;;;;;21.80;77.80;;;;;;5113358;28;20018;-55
2023/09/29 00:49:56;;;;;;;;;;;21.80;77.70;;;;;;5113494;28;19951;-56
2023/09/29 00:52:23;;;;;;;;;;;21.80;78.10;;;;;;5094913;28;19920;-56
2023/09/29 00:54:48;;;;;;;;;;;21.80;78.20;;;;;;5113400;28;19926;-55
2023/09/29 00:57:14;;;;;;;;;;;21.80;78.00;;;;;;5113322;28;19915;-54
2023/09/29 00:59:40;;;;;;;;;;;21.80;78.30;;;;;;5113349;28;20283;-55
2023/09/29 01:02:09;;;;;;;;;;;21.80;78.30;;;;;;5113292;28;19995;-56
2023/09/29 01:04:34;;;;;;;;;;;21.80;79.10;;;;;;5113269;28;19908;-56
2023/09/29 01:07:00;;;;;;;;;;;21.80;78.00;;;;;;5113590;28;19908;-55
2023/09/29 01:09:26;;;;;;;;;;;21.80;78.20;;;;;;5113198;28;19908;-55
2023/09/29 01:11:52;;;;;;;;;;;21.80;78.10;;;;;;5113192;28;19995;-56
2023/09/29 01:14:18;;;;;;;;;;;21.80;78.40;;;;;;5113142;28;19951;-56
2023/09/29 01:16:44;;;;;;;;;;;21.80;78.20;;;;;;5113199;28;19912;-56
2023/09/29 01:19:12;;;;;;;;;;;21.80;78.10;;;;;;5113157;28;19960;-56
2023/09/29 01:21:39;;;;;;;;;;;21.80;78.30;;;;;;5094980;28;19908;-56
2023/09/29 01:24:06;;;;;;;;;;;21.80;78.30;;;;;;5113040;28;19935;-56
2023/09/29 01:26:31;;;;;;;;;;;21.70;78.20;;;;;;5116791;28;19907;-55
2023/09/29 01:28:58;;;;;;;;;;;21.70;77.50;;;;;;5117032;28;20410;-55
2023/09/29 01:31:23;;;;;;;;;;;21.80;78.20;;;;;;5117052;28;19915;-55
2023/09/29 01:33:49;;;;;;;;;;;21.80;78.00;;;;;;5098842;28;19908;-55
2023/09/29 01:36:14;;;;;;;;;;;21.80;77.70;;;;;;5116944;28;19988;-55
2023/09/29 01:38:40;;;;;;;;;;;21.70;78.20;;;;;;5116867;28;19914;-55
2023/09/29 01:41:05;;;;;;;;;;;21.80;79.10;;;;;;5117163;28;19912;-56
2023/09/29 01:43:31;;;;;;;;;;;21.70;78.40;;;;;;5116831;28;20007;-55
2023/09/29 01:45:56;;;;;;;;;;;21.80;77.90;;;;;;5116968;28;19915;-55
2023/09/29 01:48:22;;;;;;;;;;;21.70;78.20;;;;;;5116633;28;19947;-56
2023/09/29 01:50:47;;;;;;;;;;;21.70;78.30;;;;;;5116550;28;20283;-55
2023/09/29 01:53:13;;;;;;;;;;;21.70;78.20;;;;;;5116777;28;19994;-55
2023/09/29 01:55:39;;;;;;;;;;;21.80;78.50;;;;;;5116510;28;19908;-55
2023/09/29 01:58:05;;;;;;;;;;;21.70;78.10;;;;;;5116499;28;19912;-55
2023/09/29 02:00:30;;;;;;;;;;;21.70;78.20;;;;;;5116793;28;19914;-56
2023/09/29 02:02:56;;;;;;;;;;;21.70;78.30;;;;;;5116498;28;19953;-55
2023/09/29 02:05:21;;;;;;;;;;;21.80;78.30;;;;;;5116453;28;19908;-54
2023/09/29 02:07:47;;;;;;;;;;;21.70;78.30;;;;;;5116408;28;19994;-56
2023/09/29 02:10:12;;;;;;;;;;;21.70;78.40;;;;;;5098123;28;20010;-56
2023/09/29 02:12:48;;;;;;;;;;;21.70;78.30;;;;;;5116295;28;20042;-56
2023/09/29 02:15:16;;;;;;;;;;;21.70;78.20;;;;;;5116175;28;20435;-54
2023/09/29 02:17:42;;;;;;;;;;;21.70;78.30;;;;;;5116234;28;20341;-56
2023/09/29 02:20:15;;;;;;;;;;;21.70;78.10;;;;;;5097950;28;20109;-54
2023/09/29 02:22:41;;;;;;;;;;;21.70;78.20;;;;;;5115999;28;20428;-56
2023/09/29 02:25:08;;;;;;;;;;;21.70;78.10;;;;;;5116025;28;20364;-57
2023/09/29 02:27:34;;;;;;;;;;;21.70;78.10;;;;;;5116016;28;19908;-56
2023/09/29 02:30:00;;;;;;;;;;;21.70;78.20;;;;;;5115932;28;20371;-55
2023/09/29 02:32:25;;;;;;;;;;;21.70;78.30;;;;;;5115974;28;19908;-54
2023/09/29 02:34:50;;;;;;;;;;;21.70;78.20;;;;;;5115851;28;19908;-55
2023/09/29 02:37:16;;;;;;;;;;;21.70;78.20;;;;;;5115332;28;20443;-55
2023/09/29 02:39:42;;;;;;;;;;;21.70;78.20;;;;;;5115821;28;19908;-55
2023/09/29 02:42:08;;;;;;;;;;;21.70;78.30;;;;;;5115813;28;19916;-56
2023/09/29 02:44:35;;;;;;;;;;;21.70;78.10;;;;;;5115802;28;20336;-56
2023/09/29 02:47:00;;;;;;;;;;;21.70;78.30;;;;;;5115583;28;19920;-56
2023/09/29 02:49:30;;;;;;;;;;;21.70;78.30;;;;;;5097297;28;20344;-56
2023/09/29 02:51:55;;;;;;;;;;;21.70;78.30;;;;;;5115442;28;20299;-55
2023/09/29 02:54:21;;;;;;;;;;;21.70;78.10;;;;;;5115422;28;19908;-56
2023/09/29 02:56:46;;;;;;;;;;;21.70;78.20;;;;;;5097080;28;19912;-55
2023/09/29 02:59:12;;;;;;;;;;;21.70;78.40;;;;;;5115443;28;19918;-56
2023/09/29 03:01:37;;;;;;;;;;;21.70;78.30;;;;;;5097086;28;20005;-55
2023/09/29 03:04:03;;;;;;;;;;;21.70;78.40;;;;;;5097102;28;19915;-56
2023/09/29 03:06:29;;;;;;;;;;;21.70;78.40;;;;;;5115199;28;19915;-55
2023/09/29 03:08:56;;;;;;;;;;;21.70;78.50;;;;;;5115185;28;19908;-56
2023/09/29 03:11:21;;;;;;;;;;;21.70;78.50;;;;;;5115012;28;19908;-55
2023/09/29 03:13:47;;;;;;;;;;;21.70;78.40;;;;;;5115042;28;19961;-56
2023/09/29 03:16:12;;;;;;;;;;;21.60;78.30;;;;;;5096722;28;19955;-55
2023/09/29 03:18:39;;;;;;;;;;;21.60;78.30;;;;;;5115004;28;19908;-55
2023/09/29 03:21:04;;;;;;;;;;;21.60;78.20;;;;;;5114995;28;19908;-56
2023/09/29 03:23:33;;;;;;;;;;;21.60;78.40;;;;;;5114811;28;19908;-56
2023/09/29 03:25:59;;;;;;;;;;;21.60;78.20;;;;;;5114739;28;20279;-55
2023/09/29 03:28:25;;;;;;;;;;;21.60;78.70;;;;;;5114773;28;19908;-55
2023/09/29 03:30:51;;;;;;;;;;;21.60;78.20;;;;;;5096508;28;19922;-56
2023/09/29 03:33:16;;;;;;;;;;;21.60;78.20;;;;;;5114654;28;19911;-56
2023/09/29 03:35:42;;;;;;;;;;;21.60;78.40;;;;;;5114662;28;19908;-56
2023/09/29 03:38:08;;;;;;;;;;;21.60;78.30;;;;;;5114511;28;19948;-55
2023/09/29 03:40:33;;;;;;;;;;;21.60;78.30;;;;;;5114495;28;19908;-55
2023/09/29 03:42:59;;;;;;;;;;;21.60;78.30;;;;;;5114442;28;19907;-55
2023/09/29 03:45:26;;;;;;;;;;;21.60;78.20;;;;;;5114416;28;19990;-55
2023/09/29 03:47:51;;;;;;;;;;;21.60;78.30;;;;;;5113611;28;19915;-55
2023/09/29 03:50:17;;;;;;;;;;;21.60;78.30;;;;;;5114494;28;19907;-55
2023/09/29 03:52:42;;;;;;;;;;;21.60;78.40;;;;;;5114291;28;19919;-56
2023/09/29 03:55:12;;;;;;;;;;;21.60;78.30;;;;;;5114603;28;20014;-55
2023/09/29 03:57:37;;;;;;;;;;;21.60;78.30;;;;;;5114054;28;19937;-56
2023/09/29 04:00:05;;;;;;;;;;;21.60;78.30;;;;;;5114148;28;19908;-55
2023/09/29 04:02:31;;;;;;;;;;;21.60;78.40;;;;;;5114061;28;19919;-56
2023/09/29 04:04:59;;;;;;;;;;;21.60;78.20;;;;;;5114055;28;19915;-56
2023/09/29 04:07:24;;;;;;;;;;;21.60;78.40;;;;;;5114001;28;20291;-56
2023/09/29 04:09:49;;;;;;;;;;;21.60;78.10;;;;;;5113962;28;19956;-55
2023/09/29 04:12:15;;;;;;;;;;;21.60;78.30;;;;;;5113958;28;19908;-56
2023/09/29 04:14:40;;;;;;;;;;;21.60;78.20;;;;;;5095621;28;19908;-56
2023/09/29 04:17:06;;;;;;;;;;;21.60;78.20;;;;;;5113785;28;19957;-55
2023/09/29 04:19:32;;;;;;;;;;;21.60;78.20;;;;;;5113733;28;19957;-56
2023/09/29 04:21:57;;;;;;;;;;;21.60;78.30;;;;;;5113824;28;19911;-56
2023/09/29 04:24:23;;;;;;;;;;;21.60;78.10;;;;;;5113780;28;19907;-56
2023/09/29 04:26:48;;;;;;;;;;;21.60;78.20;;;;;;5113631;28;20004;-55
2023/09/29 04:29:14;;;;;;;;;;;21.60;78.30;;;;;;5095392;28;19915;-56
2023/09/29 04:31:40;;;;;;;;;;;21.60;78.30;;;;;;5113600;28;19933;-55
2023/09/29 04:34:05;;;;;;;;;;;21.60;78.20;;;;;;5113626;28;19908;-54
2023/09/29 04:36:31;;;;;;;;;;;21.50;78.10;;;;;;5113512;28;19912;-56
2023/09/29 04:38:56;;;;;;;;;;;21.60;78.30;;;;;;5113658;28;20427;-55
2023/09/29 04:41:22;;;;;;;;;;;21.60;78.40;;;;;;5113478;28;20363;-56
2023/09/29 04:43:47;;;;;;;;;;;21.50;78.30;;;;;;5113449;28;19912;-55
2023/09/29 04:46:13;;;;;;;;;;;21.60;78.20;;;;;;5113380;28;19908;-55
2023/09/29 04:48:38;;;;;;;;;;;21.50;78.10;;;;;;5113386;28;19907;-55
2023/09/29 04:51:04;;;;;;;;;;;21.50;78.00;;;;;;5113168;28;19994;-56
2023/09/29 04:53:29;;;;;;;;;;;21.50;78.10;;;;;;5113291;28;20375;-55
2023/09/29 04:55:58;;;;;;;;;;;21.50;78.10;;;;;;5113560;28;20325;-56
2023/09/29 04:58:23;;;;;;;;;;;21.50;78.10;;;;;;5113846;28;20380;-55
2023/09/29 05:00:49;;;;;;;;;;;21.50;78.20;;;;;;5120501;28;19961;-56
2023/09/29 05:03:14;;;;;;;;;;;21.50;78.20;;;;;;5120037;28;20380;-56
2023/09/29 05:05:40;;;;;;;;;;;21.50;78.30;;;;;;5120040;28;20006;-56
2023/09/29 05:08:05;;;;;;;;;;;21.50;78.30;;;;;;5120035;28;20283;-55
2023/09/29 05:10:31;;;;;;;;;;;21.50;78.30;;;;;;5101734;28;19952;-56
2023/09/29 05:12:56;;;;;;;;;;;21.50;78.40;;;;;;5120022;28;20329;-55
2023/09/29 05:15:22;;;;;;;;;;;21.50;78.30;;;;;;5119808;28;20397;-56
2023/09/29 05:17:47;;;;;;;;;;;21.50;78.30;;;;;;5119914;28;19938;-55
2023/09/29 05:20:14;;;;;;;;;;;21.50;78.40;;;;;;5084676;28;20287;-55
2023/09/29 05:22:39;;;;;;;;;;;21.50;78.40;;;;;;5119867;28;19957;-55
2023/09/29 05:25:05;;;;;;;;;;;21.50;79.20;;;;;;5119866;28;19908;-56
2023/09/29 05:27:32;;;;;;;;;;;21.50;78.40;;;;;;5119957;28;19972;-56
2023/09/29 05:29:57;;;;;;;;;;;21.50;78.30;;;;;;5119777;28;19907;-55
2023/09/29 05:32:24;;;;;;;;;;;21.50;78.30;;;;;;5119703;28;19957;-56
2023/09/29 05:34:50;;;;;;;;;;;21.50;78.40;;;;;;5119837;28;19999;-56
2023/09/29 05:37:15;;;;;;;;;;;21.50;78.30;;;;;;5101577;28;20042;-56
2023/09/29 05:39:41;;;;;;;;;;;21.50;78.20;;;;;;5119721;28;19914;-55
2023/09/29 05:42:07;;;;;;;;;;;21.60;78.20;;;;;;5101401;28;20015;-55
2023/09/29 05:44:33;;;;;;;;;;;21.50;78.00;;;;;;5119680;28;19908;-55
2023/09/29 05:46:58;;;;;;;;;;;21.50;78.00;;;;;;5119684;28;19908;-56
2023/09/29 05:49:25;;;;;;;;;;;21.50;78.20;;;;;;5119678;28;20360;-56
2023/09/29 05:51:50;;;;;;;;;;;21.50;78.30;;;;;;5119429;28;20049;-56
2023/09/29 05:54:15;;;;;;;;;;;21.50;78.10;;;;;;5119620;28;19973;-56
2023/09/29 05:56:41;;;;;;;;;;;21.50;78.40;;;;;;5119416;28;20334;-56
2023/09/29 05:59:06;;;;;;;;;;;21.50;78.20;;;;;;5119512;28;19908;-56
2023/09/29 06:01:32;;;;;;;;;;;21.50;78.30;;;;;;5119558;28;19907;-56
2023/09/29 06:03:58;;;;;;;;;;;21.50;78.40;;;;;;5101332;28;19953;-55
2023/09/29 06:06:24;;;;;;;;;;;21.40;78.20;;;;;;5101011;28;19916;-55
2023/09/29 06:08:49;;;;;;;;;;;21.50;78.20;;;;;;5119487;28;19907;-56
2023/09/29 06:11:15;;;;;;;;;;;21.50;78.40;;;;;;5116662;28;20321;-55
2023/09/29 06:13:42;;;;;;;;;;;21.50;78.40;;;;;;5097773;28;19908;-56
2023/09/29 06:16:08;;;;;;;;;;;21.50;78.30;;;;;;5116357;28;19956;-55
2023/09/29 06:18:33;;;;;;;;;;;21.50;78.40;;;;;;5116183;28;19994;-55
2023/09/29 06:21:00;;;;;;;;;;;21.50;78.60;;;;;;5116084;28;19907;-55
2023/09/29 06:23:25;;;;;;;;;;;21.40;78.40;;;;;;5115915;28;19908;-56
2023/09/29 06:26:00;;;;;;;;;;;21.40;78.50;;;;;;5116076;28;20367;-55
2023/09/29 06:28:26;;;;;;;;;;;21.40;78.70;;;;;;5097860;28;19908;-55
2023/09/29 06:30:52;;;;;;;;;;;21.40;78.70;;;;;;5115943;28;19930;-55
2023/09/29 06:33:18;;;;;;;;;;;21.40;78.60;;;;;;5115802;28;19912;-56
2023/09/29 06:35:44;;;;;;;;;;;21.40;78.70;;;;;;5097651;28;20363;-56
2023/09/29 06:38:09;;;;;;;;;;;21.40;78.70;;;;;;5097750;28;19954;-56
2023/09/29 06:40:35;;;;;;;;;;;21.40;78.70;;;;;;5115610;28;19912;-55
2023/09/29 06:43:00;;;;;;;;;;;21.40;78.90;;;;;;5115698;28;20296;-55
2023/09/29 06:45:29;;;;;;;;;;;21.30;78.90;;;;;;5115634;28;19908;-56
2023/09/29 06:47:55;;;;;;;;;;;21.40;78.90;;;;;;5115552;28;20002;-55
2023/09/29 06:50:21;;;;;;;;;;;21.40;79.00;;;;;;5115470;28;20378;-54
2023/09/29 06:52:46;;;;;;;;;;;21.40;78.80;;;;;;5115375;28;19959;-56
2023/09/29 06:55:13;;;;;;;;;;;21.40;78.80;;;;;;5115420;28;20360;-56
2023/09/29 06:57:39;;;;;;;;;;;21.40;78.80;;;;;;5096938;28;19927;-56
2023/09/29 07:00:05;;;;;;;;;;;21.40;79.00;;;;;;5115412;28;19915;-55
2023/09/29 07:02:31;;;;;;;;;;;21.40;79.00;;;;;;5115196;28;20367;-55
2023/09/29 07:04:57;;;;;;;;;;;21.40;79.10;;;;;;5097000;28;19908;-56
2023/09/29 07:07:22;;;;;;;;;;;21.40;78.90;;;;;;5115256;28;19968;-55
2023/09/29 07:09:48;;;;;;;;;;;21.40;78.90;;;;;;5115429;28;20004;-55
2023/09/29 07:12:13;;;;;;;;;;;21.40;78.80;;;;;;5115056;28;20041;-55
2023/09/29 07:14:38;;;;;;;;;;;21.40;78.90;;;;;;5114998;28;19908;-55
2023/09/29 07:17:04;;;;;;;;;;;21.40;78.90;;;;;;5114959;28;19918;-55
2023/09/29 07:19:31;;;;;;;;;;;21.40;78.90;;;;;;5114941;28;19939;-55
2023/09/29 07:21:57;;;;;;;;;;;21.40;79.00;;;;;;5114248;28;20335;-56
2023/09/29 07:24:22;;;;;;;;;;;21.40;79.10;;;;;;5114459;28;20018;-55
2023/09/29 07:26:48;;;;;;;;;;;21.40;79.30;;;;;;5114790;28;19919;-56
2023/09/29 07:29:13;;;;;;;;;;;21.40;79.20;;;;;;5114691;28;19930;-55
2023/09/29 07:31:46;;;;;;;;;;;21.40;79.20;;;;;;5114665;28;19908;-55
2023/09/29 07:34:12;;;;;;;;;;;21.40;79.10;;;;;;5115055;28;19908;-55
2023/09/29 07:36:39;;;;;;;;;;;21.40;79.40;;;;;;5114556;28;20592;-56
2023/09/29 07:39:04;;;;;;;;;;;21.30;79.30;;;;;;5114661;28;19915;-55
2023/09/29 07:41:30;;;;;;;;;;;21.30;79.40;;;;;;5114556;28;19956;-55
2023/09/29 07:43:56;;;;;;;;;;;21.30;79.50;;;;;;5114529;28;19908;-55
2023/09/29 07:46:22;;;;;;;;;;;21.40;79.60;;;;;;5114401;28;19914;-55
2023/09/29 07:48:47;;;;;;;;;;;21.30;79.60;;;;;;5096155;28;19911;-55
2023/09/29 07:51:13;;;;;;;;;;;21.40;79.60;;;;;;5096003;28;19973;-56
2023/09/29 07:53:38;;;;;;;;;;;21.30;79.90;;;;;;5114273;28;19908;-55
2023/09/29 07:56:04;;;;;;;;;;;21.40;79.90;;;;;;5114156;28;19960;-56
2023/09/29 07:58:29;;;;;;;;;;;21.40;79.80;;;;;;5114398;28;19919;-56
2023/09/29 08:00:55;;;;;;;;;;;21.40;79.70;;;;;;5114290;28;19956;-55
2023/09/29 08:03:20;;;;;;;;;;;21.40;79.70;;;;;;5114201;28;19908;-55
2023/09/29 08:05:46;;;;;;;;;;;21.40;79.60;;;;;;5114181;28;19999;-55
2023/09/29 08:08:11;;;;;;;;;;;21.40;79.50;;;;;;5114108;28;19914;-56
2023/09/29 08:10:37;;;;;;;;;;;21.40;79.60;;;;;;5113981;28;20399;-56
2023/09/29 08:13:02;;;;;;;;;;;21.40;79.60;;;;;;5114064;28;19908;-55
2023/09/29 08:15:27;;;;;;;;;;;21.40;79.80;;;;;;5113903;28;19911;-56
2023/09/29 08:17:53;;;;;;;;;;;21.40;80.20;;;;;;5113892;28;20323;-56
2023/09/29 08:20:20;;;;;;;;;;;21.40;80.20;;;;;;5113824;28;19908;-56
2023/09/29 08:22:45;;;;;;;;;;;21.40;79.80;;;;;;5113774;28;19912;-56
2023/09/29 08:25:11;;;;;;;;;;;21.40;80.20;;;;;;5095580;28;19914;-55
2023/09/29 08:27:37;;;;;;;;;;;21.40;81.10;;;;;;5113628;28;19911;-56
2023/09/29 08:30:03;;;;;;;;;;;21.40;80.20;;;;;;5113722;28;19915;-55
2023/09/29 08:32:29;;;;;;;;;;;21.40;80.20;;;;;;5095366;28;19912;-55
2023/09/29 08:34:54;;;;;;;;;;;21.40;80.20;;;;;;5095203;28;19908;-55
2023/09/29 08:37:20;;;;;;;;;;;21.40;80.20;;;;;;5113531;28;20442;-55
2023/09/29 08:39:46;;;;;;;;;;;21.40;80.20;;;;;;5113851;28;19912;-55
2023/09/29 08:42:26;;;;;;;;;;;21.40;80.20;;;;;;5113617;28;19908;-55
2023/09/29 08:44:52;;;;;;;;;;;21.40;80.20;;;;;;5095734;28;19954;-56
2023/09/29 08:47:17;;;;;;;;;;;21.40;80.50;;;;;;5095273;28;20291;-55
2023/09/29 08:49:44;;;;;;;;;;;21.40;80.20;;;;;;5095244;28;20276;-56
2023/09/29 08:52:10;;;;;;;;;;;21.40;80.20;;;;;;5113342;28;20380;-55
2023/09/29 08:54:35;;;;;;;;;;;21.40;80.30;;;;;;5113414;28;19907;-56
2023/09/29 08:57:00;;;;;;;;;;;21.40;80.70;;;;;;5113192;28;20359;-56
2023/09/29 08:59:26;;;;;;;;;;;21.50;80.70;;;;;;5113254;28;20321;-55
2023/09/29 09:01:55;;;;;;;;;;;21.50;80.40;;;;;;5113273;28;20002;-56
2023/09/29 09:04:20;;;;;;;;;;;21.40;80.50;;;;;;5113238;28;19954;-56
2023/09/29 09:06:47;;;;;;;;;;;21.50;81.10;;;;;;5113390;28;19930;-55
2023/09/29 09:09:13;;;;;;;;;;;21.50;81.10;;;;;;5113283;28;19911;-55
2023/09/29 09:11:42;;;;;;;;;;;21.50;80.90;;;;;;5095429;28;19965;-56
2023/09/29 09:14:10;;;;;;;;;;;21.50;80.70;;;;;;5113264;28;20339;-55
2023/09/29 09:16:40;;;;;;;;;;;21.50;80.90;;;;;;5113140;28;19916;-56
2023/09/29 09:19:09;;;;;;;;;;;21.50;81.00;;;;;;5094824;28;19994;-55
2023/09/29 09:21:35;;;;;;;;;;;21.50;80.70;;;;;;5113079;28;20413;-56
2023/09/29 09:24:00;;;;;;;;;;;21.50;81.00;;;;;;5113077;28;19908;-55
2023/09/29 09:26:27;;;;;;;;;;;21.50;81.20;;;;;;5113040;28;19933;-55
2023/09/29 09:28:53;;;;;;;;;;;21.50;81.60;;;;;;5094832;28;19908;-56
2023/09/29 09:31:18;;;;;;;;;;;21.50;81.40;;;;;;5113008;28;20412;-56
2023/09/29 09:33:48;;;;;;;;;;;21.50;81.50;;;;;;5094717;28;19911;-56
2023/09/29 09:36:13;;;;;;;;;;;21.50;81.50;;;;;;5095039;28;19908;-56
2023/09/29 09:38:39;;;;;;;;;;;21.50;81.50;;;;;;5112829;28;19916;-55
2023/09/29 09:41:05;;;;;;;;;;;21.50;81.60;;;;;;5112824;28;19915;-56
2023/09/29 09:43:35;;;;;;;;;;;21.50;81.90;;;;;;5094627;28;19956;-55
2023/09/29 09:46:06;;;;;;;;;;;21.50;82.20;;;;;;5113972;28;19907;-55
2023/09/29 09:48:35;;;;;;;;;;;21.50;82.20;;;;;;5123450;28;20279;-56
2023/09/29 09:51:01;;;;;;;;;;;21.50;82.50;;;;;;5116887;28;19916;-55
2023/09/29 09:53:26;;;;;;;;;;;21.50;83.20;;;;;;5098256;28;20348;-55
2023/09/29 09:55:52;;;;;;;;;;;21.50;83.00;;;;;;5116618;28;19926;-56
2023/09/29 09:58:21;;;;;;;;;;;21.50;83.40;;;;;;5116483;28;19994;-55
2023/09/29 10:00:49;;;;;;;;;;;21.40;83.50;;;;;;5116425;28;19908;-56
2023/09/29 10:03:16;;;;;;;;;;;21.50;83.10;;;;;;5116491;28;19908;-56
2023/09/29 10:05:46;;;;;;;;;;;21.50;83.30;;;;;;5116421;28;19908;-55
2023/09/29 10:08:21;;;;;;;;;;;21.40;84.00;;;;;;5098742;28;19939;-55
2023/09/29 10:10:48;;;;;;;;;;;21.40;84.70;;;;;;5098154;28;19957;-55
2023/09/29 10:13:15;;;;;;;;;;;21.40;84.30;;;;;;5116197;28;19908;-55
2023/09/29 10:15:41;;;;;;;;;;;21.40;84.70;;;;;;5098244;28;19943;-55
2023/09/29 10:18:13;;;;;;;;;;;21.50;84.40;;;;;;5097886;28;20367;-55
2023/09/29 10:20:39;;;;;;;;;;;21.50;83.90;;;;;;5116160;28;19980;-55
2023/09/29 10:23:08;;;;;;;;;;;21.50;84.10;;;;;;5116081;28;20042;-55
2023/09/29 10:25:36;;;;;;;;;;;21.50;84.70;;;;;;5116021;28;20045;-55
2023/09/29 10:28:06;;;;;;;;;;;21.50;84.30;;;;;;5097795;28;19911;-56
2023/09/29 10:30:32;;;;;;;;;;;21.50;84.40;;;;;;5097714;28;19935;-55
2023/09/29 10:33:13;;;;;;;;;;;21.50;84.60;;;;;;5097929;28;20373;-56
2023/09/29 10:35:44;;;;;;;;;;;21.50;84.30;;;;;;5115935;28;19963;-55
2023/09/29 10:38:22;;;;;;;;;;;21.60;84.40;;;;;;5097860;28;19912;-56
2023/09/29 10:40:48;;;;;;;;;;;21.70;84.20;;;;;;5115743;28;20427;-56
2023/09/29 10:43:17;;;;;;;;;;;21.80;83.50;;;;;;5115909;28;19996;-56
2023/09/29 10:45:43;;;;;;;;;;;21.90;83.00;;;;;;5115668;28;19907;-56
2023/09/29 10:48:08;;;;;;;;;;;21.90;82.50;;;;;;5115710;28;19915;-56
2023/09/29 10:50:44;;;;;;;;;;;21.90;82.30;;;;;;5115353;28;19908;-55
2023/09/29 10:53:10;;;;;;;;;;;21.90;82.00;;;;;;5115800;28;20010;-56
2023/09/29 10:55:41;;;;;;;;;;;22.00;81.90;;;;;;5097353;28;19947;-55
2023/09/29 10:58:06;;;;;;;;;;;22.10;81.60;;;;;;5097161;28;19983;-55
2023/09/29 11:00:40;;;;;;;;;;;22.10;81.60;;;;;;5115622;28;19962;-56
2023/09/29 11:03:07;;;;;;;;;;;22.20;81.20;;;;;;5115372;28;19908;-55
2023/09/29 11:05:32;;;;;;;;;;;22.20;81.00;;;;;;5115337;28;20015;-55
2023/09/29 11:07:58;;;;;;;;;;;22.10;80.90;;;;;;5115302;28;19955;-55
2023/09/29 11:10:25;;;;;;;;;;;22.00;80.80;;;;;;5115269;28;19908;-56
2023/09/29 11:12:50;;;;;;;;;;;22.00;81.10;;;;;;5115169;28;19908;-57
2023/09/29 11:15:16;;;;;;;;;;;21.90;81.10;;;;;;5115197;28;19951;-55
2023/09/29 11:17:44;;;;;;;;;;;21.90;81.30;;;;;;5114918;28;19913;-58
2023/09/29 11:20:16;;;;;;;;;;;21.90;81.70;;;;;;5096928;28;19908;-55
2023/09/29 11:22:42;;;;;;;;;;;21.90;82.00;;;;;;5096652;28;19907;-56
2023/09/29 11:25:17;;;;;;;;;;;21.90;82.30;;;;;;5114897;28;19908;-55
2023/09/29 11:27:50;;;;;;;;;;;21.80;82.40;;;;;;5114697;28;19991;-56
2023/09/29 11:30:15;;;;;;;;;;;21.80;82.40;;;;;;5114830;28;20380;-56
2023/09/29 11:32:41;;;;;;;;;;;21.90;82.30;;;;;;5114700;28;19934;-56
2023/09/29 11:35:13;;;;;;;;;;;21.90;82.20;;;;;;5114896;28;19908;-55
2023/09/29 11:37:39;;;;;;;;;;;21.90;82.20;;;;;;5096281;28;19916;-56
2023/09/29 11:40:11;;;;;;;;;;;21.90;82.00;;;;;;5114719;28;19915;-55
2023/09/29 11:42:39;;;;;;;;;;;22.00;82.10;;;;;;5114847;28;19908;-55
2023/09/29 11:45:08;;;;;;;;;;;22.00;82.00;;;;;;5114544;28;20250;-56
2023/09/29 11:47:43;;;;;;;;;;;22.00;81.90;;;;;;5114313;28;19998;-55
2023/09/29 11:50:08;;;;;;;;;;;22.10;82.10;;;;;;5095940;28;19912;-56
2023/09/29 11:52:35;;;;;;;;;;;22.10;82.00;;;;;;5114113;28;20382;-55
2023/09/29 11:55:00;;;;;;;;;;;22.20;82.00;;;;;;5114338;28;19912;-55
2023/09/29 11:57:26;;;;;;;;;;;22.20;82.00;;;;;;5114194;28;19918;-55
2023/09/29 11:59:52;;;;;;;;;;;22.20;81.90;;;;;;5114206;28;19908;-56
2023/09/29 12:02:17;;;;;;;;;;;22.10;81.90;;;;;;5114182;28;19908;-56
2023/09/29 12:04:43;;;;;;;;;;;22.10;82.10;;;;;;5113938;28;20382;-55
2023/09/29 12:07:08;;;;;;;;;;;22.20;82.10;;;;;;5079055;28;19915;-55
2023/09/29 12:09:33;;;;;;;;;;;22.10;82.10;;;;;;5113057;28;19908;-56
2023/09/29 12:12:00;;;;;;;;;;;22.10;82.30;;;;;;5113887;28;19907;-56
2023/09/29 12:14:26;;;;;;;;;;;22.10;82.30;;;;;;5114035;28;20042;-55
2023/09/29 12:16:53;;;;;;;;;;;22.10;82.50;;;;;;5113901;28;19994;-56
2023/09/29 12:19:20;;;;;;;;;;;22.10;82.70;;;;;;5095874;28;20010;-56
2023/09/29 12:21:47;;;;;;;;;;;22.10;82.60;;;;;;5096033;28;19962;-56
2023/09/29 12:24:13;;;;;;;;;;;22.20;82.50;;;;;;5113744;28;19907;-56
2023/09/29 12:26:39;;;;;;;;;;;22.30;82.30;;;;;;5113697;28;19990;-55
2023/09/29 12:29:05;;;;;;;;;;;22.30;82.30;;;;;;5113691;28;19907;-56
2023/09/29 12:31:30;;;;;;;;;;;22.20;82.40;;;;;;5113648;28;19951;-55
2023/09/29 12:33:56;;;;;;;;;;;22.20;82.60;;;;;;5095329;28;19922;-56
2023/09/29 12:36:22;;;;;;;;;;;22.20;82.70;;;;;;5113530;28;20291;-56
2023/09/29 12:38:48;;;;;;;;;;;22.20;82.90;;;;;;5113420;28;19912;-55
2023/09/29 12:41:15;;;;;;;;;;;22.20;83.00;;;;;;5095275;28;20311;-56
2023/09/29 12:43:41;;;;;;;;;;;22.20;83.00;;;;;;5113570;28;19912;-56
2023/09/29 12:46:06;;;;;;;;;;;22.20;82.90;;;;;;5113652;28;20284;-56
2023/09/29 12:48:32;;;;;;;;;;;22.20;83.10;;;;;;5113462;28;19908;-56
2023/09/29 12:50:57;;;;;;;;;;;22.20;82.70;;;;;;5113296;28;19915;-56
2023/09/29 12:53:22;;;;;;;;;;;22.30;82.90;;;;;;5113445;28;20015;-55
2023/09/29 12:55:48;;;;;;;;;;;22.30;82.80;;;;;;5113296;28;19912;-55
2023/09/29 12:58:13;;;;;;;;;;;22.30;82.90;;;;;;5113397;28;19947;-56
2023/09/29 13:00:39;;;;;;;;;;;22.30;82.60;;;;;;5113350;28;19957;-56
2023/09/29 13:03:05;;;;;;;;;;;22.30;82.60;;;;;;5113408;28;19909;-55
2023/09/29 13:05:31;;;;;;;;;;;22.30;82.70;;;;;;5095069;28;19908;-56
2023/09/29 13:07:56;;;;;;;;;;;22.30;82.60;;;;;;5113325;28;19914;-56
2023/09/29 13:10:22;;;;;;;;;;;22.30;82.50;;;;;;5113297;28;20002;-56
2023/09/29 13:12:54;;;;;;;;;;;22.30;82.60;;;;;;5113168;28;19908;-56
2023/09/29 13:15:21;;;;;;;;;;;22.30;83.40;;;;;;5113738;28;19912;-56
2023/09/29 13:17:46;;;;;;;;;;;22.30;82.80;;;;;;5094964;28;19919;-56
2023/09/29 13:20:12;;;;;;;;;;;22.30;82.60;;;;;;5114820;28;19908;-56
2023/09/29 13:22:38;;;;;;;;;;;22.30;82.60;;;;;;5117433;28;20402;-56
2023/09/29 13:25:05;;;;;;;;;;;22.30;82.40;;;;;;5117227;28;19957;-56
2023/09/29 13:27:32;;;;;;;;;;;22.30;82.30;;;;;;5117198;28;19907;-55
2023/09/29 13:29:58;;;;;;;;;;;22.30;82.20;;;;;;5117271;28;19908;-56
2023/09/29 13:32:23;;;;;;;;;;;22.30;82.30;;;;;;5117102;28;19942;-55
2023/09/29 13:34:50;;;;;;;;;;;22.30;82.30;;;;;;5117133;28;19908;-56
2023/09/29 13:37:17;;;;;;;;;;;22.30;82.10;;;;;;5117082;28;19911;-56
2023/09/29 13:39:43;;;;;;;;;;;22.30;81.90;;;;;;5099259;28;19934;-55
2023/09/29 13:42:09;;;;;;;;;;;22.30;81.90;;;;;;5117051;28;20351;-55
2023/09/29 13:44:34;;;;;;;;;;;22.30;81.80;;;;;;5098668;28;19922;-56
2023/09/29 13:47:00;;;;;;;;;;;22.30;81.80;;;;;;5116802;28;19919;-56
2023/09/29 13:49:25;;;;;;;;;;;22.30;82.60;;;;;;5116769;28;20006;-56
2023/09/29 13:51:51;;;;;;;;;;;22.30;81.80;;;;;;5116490;28;19920;-56
2023/09/29 13:54:17;;;;;;;;;;;22.30;81.90;;;;;;5098592;28;19908;-56
2023/09/29 13:56:42;;;;;;;;;;;22.30;82.00;;;;;;5116557;28;19908;-56
2023/09/29 13:59:08;;;;;;;;;;;22.40;82.10;;;;;;5116628;28;20265;-56
2023/09/29 14:01:33;;;;;;;;;;;22.40;81.90;;;;;;5116648;28;19908;-56
2023/09/29 14:04:00;;;;;;;;;;;22.40;82.10;;;;;;5116710;28;19918;-56
2023/09/29 14:06:27;;;;;;;;;;;22.40;82.10;;;;;;5116525;28;19935;-55
2023/09/29 14:08:53;;;;;;;;;;;22.40;82.00;;;;;;5116527;28;20356;-55
2023/09/29 14:11:19;;;;;;;;;;;22.50;82.00;;;;;;5116493;28;19919;-56